sensor_id;sensor_type;location;lat;lon;timestamp;pressure;altitude;pressure_sealevel;temperature;humidity
57000;BME280;42891;50.006;21.964;2023-02-03T00:02:13;99163.69;;;1.76;88.32
57000;BME280;42891;50.006;21.964;2023-02-03T00:06:13;99166.28;;;1.76;87.76
57000;BME280;42891;50.006;21.964;2023-02-03T00:10:15;99170.31;;;1.83;88.17
57000;BME280;42891;50.006;21.964;2023-02-03T00:14:20;99165.47;;;1.76;87.64
57000;BME280;42891;50.006;21.964;2023-02-03T00:18:20;99190.72;;;1.91;87.41
57000;BME280;42891;50.006;21.964;2023-02-03T00:22:20;99185.22;;;1.80;87.05
57000;BME280;42891;50.006;21.964;2023-02-03T00:26:21;99211.88;;;1.85;87.27
57000;BME280;42891;50.006;21.964;2023-02-03T00:30:23;99218.06;;;1.82;87.52
57000;BME280;42891;50.006;21.964;2023-02-03T00:34:27;99214.94;;;1.76;87.96
57000;BME280;42891;50.006;21.964;2023-02-03T00:38:28;99226.13;;;1.78;87.96
57000;BME280;42891;50.006;21.964;2023-02-03T00:42:29;99218.69;;;1.70;88.43
57000;BME280;42891;50.006;21.964;2023-02-03T00:46:29;99234.06;;;1.75;87.68
57000;BME280;42891;50.006;21.964;2023-02-03T00:50:29;99219.44;;;1.72;87.99
57000;BME280;42891;50.006;21.964;2023-02-03T00:54:30;99223.44;;;1.79;87.53
57000;BME280;42891;50.006;21.964;2023-02-03T00:58:30;99227.00;;;1.59;90.23
57000;BME280;42891;50.006;21.964;2023-02-03T01:02:30;99257.38;;;1.78;92.76
57000;BME280;42891;50.006;21.964;2023-02-03T01:06:31;99251.31;;;1.58;92.90
57000;BME280;42891;50.006;21.964;2023-02-03T01:10:32;99258.13;;;1.43;92.34
57000;BME280;42891;50.006;21.964;2023-02-03T01:14:32;99239.56;;;1.32;90.83
57000;BME280;42891;50.006;21.964;2023-02-03T01:18:32;99258.31;;;1.39;90.25
57000;BME280;42891;50.006;21.964;2023-02-03T01:22:33;99258.19;;;1.42;90.14
57000;BME280;42891;50.006;21.964;2023-02-03T01:26:33;99266.13;;;1.39;89.62
57000;BME280;42891;50.006;21.964;2023-02-03T01:30:33;99272.75;;;1.46;89.04
57000;BME280;42891;50.006;21.964;2023-02-03T01:34:33;99287.50;;;1.45;88.80
57000;BME280;42891;50.006;21.964;2023-02-03T01:38:35;99286.66;;;1.45;88.47
57000;BME280;42891;50.006;21.964;2023-02-03T01:42:36;99280.81;;;1.40;88.62
57000;BME280;42891;50.006;21.964;2023-02-03T01:46:41;99294.31;;;1.67;88.07
57000;BME280;42891;50.006;21.964;2023-02-03T01:50:44;99280.59;;;1.63;87.92
57000;BME280;42891;50.006;21.964;2023-02-03T01:54:47;99299.84;;;1.78;87.97
57000;BME280;42891;50.006;21.964;2023-02-03T01:58:49;99307.59;;;1.80;87.58
57000;BME280;42891;50.006;21.964;2023-02-03T02:02:50;99303.53;;;1.74;87.93
57000;BME280;42891;50.006;21.964;2023-02-03T02:06:51;99281.47;;;1.64;86.89
57000;BME280;42891;50.006;21.964;2023-02-03T02:10:52;99298.16;;;1.77;87.15
57000;BME280;42891;50.006;21.964;2023-02-03T02:14:53;99288.41;;;1.63;87.06
57000;BME280;42891;50.006;21.964;2023-02-03T02:23:52;99303.75;;;1.69;87.21
57000;BME280;42891;50.006;21.964;2023-02-03T02:28:25;99304.16;;;1.79;87.96
57000;BME280;42891;50.006;21.964;2023-02-03T02:33:03;99305.41;;;1.70;88.18
57000;BME280;42891;50.006;21.964;2023-02-03T02:41:17;99300.44;;;1.47;87.42
57000;BME280;42891;50.006;21.964;2023-02-03T02:45:25;99335.88;;;1.30;89.30
57000;BME280;42891;50.006;21.964;2023-02-03T02:49:32;99343.16;;;1.03;93.02
57000;BME280;42891;50.006;21.964;2023-02-03T02:53:41;99336.94;;;0.87;94.56
57000;BME280;42891;50.006;21.964;2023-02-03T02:57:46;99315.16;;;0.89;95.17
57000;BME280;42891;50.006;21.964;2023-02-03T03:01:47;99306.00;;;0.80;94.55
57000;BME280;42891;50.006;21.964;2023-02-03T03:06:00;99313.31;;;0.91;94.23
57000;BME280;42891;50.006;21.964;2023-02-03T03:10:05;99324.31;;;0.98;93.68
57000;BME280;42891;50.006;21.964;2023-02-03T03:14:08;99327.28;;;1.09;92.99
57000;BME280;42891;50.006;21.964;2023-02-03T03:18:30;99336.06;;;1.07;91.35
57000;BME280;42891;50.006;21.964;2023-02-03T03:22:35;99318.28;;;1.16;89.86
57000;BME280;42891;50.006;21.964;2023-02-03T04:43:33;99333.16;;;0.94;80.59
57000;BME280;42891;50.006;21.964;2023-02-03T04:47:33;99327.13;;;0.93;81.09
57000;BME280;42891;50.006;21.964;2023-02-03T04:51:34;99328.03;;;0.92;80.98
57000;BME280;42891;50.006;21.964;2023-02-03T04:55:34;99340.38;;;0.87;81.02
57000;BME280;42891;50.006;21.964;2023-02-03T04:59:35;99323.44;;;0.78;80.98
57000;BME280;42891;50.006;21.964;2023-02-03T05:03:35;99331.22;;;0.78;81.16
57000;BME280;42891;50.006;21.964;2023-02-03T05:07:36;99351.50;;;0.91;81.30
57000;BME280;42891;50.006;21.964;2023-02-03T05:11:36;99332.56;;;0.87;81.16
57000;BME280;42891;50.006;21.964;2023-02-03T05:15:36;99345.13;;;0.98;80.98
57000;BME280;42891;50.006;21.964;2023-02-03T05:19:37;99346.16;;;0.94;80.63
57000;BME280;42891;50.006;21.964;2023-02-03T05:28:34;99345.25;;;0.74;79.60
57000;BME280;42891;50.006;21.964;2023-02-03T05:32:34;99348.44;;;0.81;79.58
57000;BME280;42891;50.006;21.964;2023-02-03T05:36:35;99335.50;;;0.59;79.85
57000;BME280;42891;50.006;21.964;2023-02-03T05:40:35;99328.25;;;0.67;79.28
57000;BME280;42891;50.006;21.964;2023-02-03T05:54:47;99361.16;;;0.66;78.57
57000;BME280;42891;50.006;21.964;2023-02-03T05:58:47;99355.59;;;0.76;78.16
57000;BME280;42891;50.006;21.964;2023-02-03T06:02:52;99362.66;;;0.72;77.97
57000;BME280;42891;50.006;21.964;2023-02-03T06:06:53;99368.13;;;0.66;78.54
57000;BME280;42891;50.006;21.964;2023-02-03T06:10:59;99370.22;;;0.36;79.68
57000;BME280;42891;50.006;21.964;2023-02-03T06:14:59;99378.56;;;0.44;78.83
57000;BME280;42891;50.006;21.964;2023-02-03T06:19:00;99354.53;;;0.39;78.58
57000;BME280;42891;50.006;21.964;2023-02-03T06:23:01;99363.47;;;0.31;76.99
57000;BME280;42891;50.006;21.964;2023-02-03T06:27:01;99359.06;;;0.33;77.49
57000;BME280;42891;50.006;21.964;2023-02-03T06:31:01;99338.72;;;0.23;76.56
57000;BME280;42891;50.006;21.964;2023-02-03T06:35:02;99356.34;;;0.37;77.02
57000;BME280;42891;50.006;21.964;2023-02-03T06:39:02;99347.00;;;0.53;77.90
57000;BME280;42891;50.006;21.964;2023-02-03T06:43:03;99362.06;;;0.45;77.00
57000;BME280;42891;50.006;21.964;2023-02-03T06:47:04;99354.03;;;0.29;76.48
57000;BME280;42891;50.006;21.964;2023-02-03T06:51:04;99339.72;;;0.41;77.16
57000;BME280;42891;50.006;21.964;2023-02-03T06:55:05;99315.28;;;0.24;75.33
57000;BME280;42891;50.006;21.964;2023-02-03T06:59:06;99338.88;;;0.61;75.88
57000;BME280;42891;50.006;21.964;2023-02-03T07:03:07;99332.41;;;0.71;76.06
57000;BME280;42891;50.006;21.964;2023-02-03T07:07:08;99327.19;;;0.71;73.93
57000;BME280;42891;50.006;21.964;2023-02-03T07:11:08;99325.66;;;0.67;74.35
57000;BME280;42891;50.006;21.964;2023-02-03T07:15:10;99329.22;;;0.64;73.88
57000;BME280;42891;50.006;21.964;2023-02-03T07:19:11;99326.41;;;0.69;73.49
57000;BME280;42891;50.006;21.964;2023-02-03T07:23:11;99322.19;;;0.46;72.49
57000;BME280;42891;50.006;21.964;2023-02-03T07:32:08;99309.41;;;0.62;73.87
57000;BME280;42891;50.006;21.964;2023-02-03T07:36:09;99309.97;;;0.68;73.39
57000;BME280;42891;50.006;21.964;2023-02-03T07:40:10;99295.75;;;0.57;74.22
57000;BME280;42891;50.006;21.964;2023-02-03T07:44:11;99307.91;;;0.56;75.39
57000;BME280;42891;50.006;21.964;2023-02-03T07:48:11;99292.63;;;0.69;76.34
57000;BME280;42891;50.006;21.964;2023-02-03T07:52:12;99291.41;;;0.78;76.20
57000;BME280;42891;50.006;21.964;2023-02-03T07:56:12;99263.16;;;0.89;75.68
57000;BME280;42891;50.006;21.964;2023-02-03T08:00:15;99261.28;;;1.12;74.94
57000;BME280;42891;50.006;21.964;2023-02-03T08:04:15;99262.53;;;1.22;74.73
57000;BME280;42891;50.006;21.964;2023-02-03T08:08:16;99269.09;;;1.31;74.39
57000;BME280;42891;50.006;21.964;2023-02-03T08:12:16;99267.41;;;1.30;73.61
57000;BME280;42891;50.006;21.964;2023-02-03T08:16:17;99263.59;;;1.37;72.33
57000;BME280;42891;50.006;21.964;2023-02-03T08:20:17;99261.38;;;1.29;72.62
57000;BME280;42891;50.006;21.964;2023-02-03T08:24:17;99222.56;;;1.06;72.67
57000;BME280;42891;50.006;21.964;2023-02-03T08:28:18;99237.09;;;0.91;71.48
57000;BME280;42891;50.006;21.964;2023-02-03T08:32:21;99216.22;;;0.92;72.70
57000;BME280;42891;50.006;21.964;2023-02-03T08:36:21;99237.66;;;0.97;72.44
57000;BME280;42891;50.006;21.964;2023-02-03T08:40:21;99228.94;;;0.98;73.45
57000;BME280;42891;50.006;21.964;2023-02-03T08:44:22;99227.06;;;1.21;72.42
57000;BME280;42891;50.006;21.964;2023-02-03T08:48:22;99211.25;;;0.88;72.08
57000;BME280;42891;50.006;21.964;2023-02-03T08:52:22;99197.81;;;0.78;71.25
57000;BME280;42891;50.006;21.964;2023-02-03T08:56:23;99212.63;;;0.76;71.95
57000;BME280;42891;50.006;21.964;2023-02-03T09:00:25;99180.69;;;0.74;71.88
57000;BME280;42891;50.006;21.964;2023-02-03T09:04:26;99192.41;;;0.82;71.89
57000;BME280;42891;50.006;21.964;2023-02-03T09:08:27;99198.03;;;1.11;72.62
57000;BME280;42891;50.006;21.964;2023-02-03T09:12:27;99190.00;;;1.16;71.99
57000;BME280;42891;50.006;21.964;2023-02-03T09:16:27;99176.50;;;1.27;71.95
57000;BME280;42891;50.006;21.964;2023-02-03T09:20:29;99141.53;;;0.96;70.64
57000;BME280;42891;50.006;21.964;2023-02-03T09:24:30;99170.91;;;1.34;70.35
57000;BME280;42891;50.006;21.964;2023-02-03T09:28:30;99169.91;;;1.19;69.37
57000;BME280;42891;50.006;21.964;2023-02-03T09:32:31;99145.16;;;1.11;69.40
57000;BME280;42891;50.006;21.964;2023-02-03T09:36:33;99137.84;;;1.19;69.89
57000;BME280;42891;50.006;21.964;2023-02-03T09:40:34;99141.56;;;1.13;69.38
57000;BME280;42891;50.006;21.964;2023-02-03T09:44:59;99147.28;;;1.39;69.37
57000;BME280;42891;50.006;21.964;2023-02-03T09:49:07;99139.25;;;1.44;69.22
57000;BME280;42891;50.006;21.964;2023-02-03T09:53:27;99128.41;;;1.70;69.44
57000;BME280;42891;50.006;21.964;2023-02-03T09:57:33;99117.22;;;1.68;68.52
57000;BME280;42891;50.006;21.964;2023-02-03T10:18:52;99075.16;;;1.94;66.17
57000;BME280;42891;50.006;21.964;2023-02-03T10:22:56;99063.78;;;2.12;65.46
57000;BME280;42891;50.006;21.964;2023-02-03T10:26:57;99056.31;;;1.88;65.73
57000;BME280;42891;50.006;21.964;2023-02-03T10:31:02;99061.31;;;1.76;65.45
57000;BME280;42891;50.006;21.964;2023-02-03T10:35:11;99054.31;;;1.94;65.22
57000;BME280;42891;50.006;21.964;2023-02-03T10:39:21;99037.16;;;2.07;64.29
57000;BME280;42891;50.006;21.964;2023-02-03T10:43:23;99038.50;;;2.14;63.29
57000;BME280;42891;50.006;21.964;2023-02-03T10:47:46;99029.34;;;2.07;63.80
57000;BME280;42891;50.006;21.964;2023-02-03T10:51:50;99000.16;;;2.00;63.33
57000;BME280;42891;50.006;21.964;2023-02-03T10:56:03;99003.28;;;2.07;64.45
57000;BME280;42891;50.006;21.964;2023-02-03T11:00:19;98977.16;;;2.25;64.68
57000;BME280;42891;50.006;21.964;2023-02-03T11:04:29;98973.84;;;2.05;63.95
57000;BME280;42891;50.006;21.964;2023-02-03T11:08:31;98961.94;;;2.17;63.23
57000;BME280;42891;50.006;21.964;2023-02-03T11:12:32;98947.31;;;1.98;64.54
57000;BME280;42891;50.006;21.964;2023-02-03T11:16:33;98939.75;;;1.78;64.97
57000;BME280;42891;50.006;21.964;2023-02-03T11:20:35;98937.94;;;1.62;64.42
57000;BME280;42891;50.006;21.964;2023-02-03T11:24:39;98911.69;;;1.99;67.13
57000;BME280;42891;50.006;21.964;2023-02-03T11:28:42;98916.81;;;2.00;64.94
57000;BME280;42891;50.006;21.964;2023-02-03T11:32:46;98905.72;;;2.13;64.74
57000;BME280;42891;50.006;21.964;2023-02-03T11:36:47;98898.50;;;2.02;64.13
57000;BME280;42891;50.006;21.964;2023-02-03T11:40:57;98883.97;;;2.14;62.78
57000;BME280;42891;50.006;21.964;2023-02-03T11:49:38;98813.56;;;1.99;62.39
57000;BME280;42891;50.006;21.964;2023-02-03T11:54:01;98844.97;;;2.12;62.67
57000;BME280;42891;50.006;21.964;2023-02-03T12:33:10;98720.94;;;2.54;63.29
57000;BME280;42891;50.006;21.964;2023-02-03T12:37:16;98693.88;;;2.57;62.15
57000;BME280;42891;50.006;21.964;2023-02-03T12:41:28;98675.97;;;2.80;62.52
57000;BME280;42891;50.006;21.964;2023-02-03T12:45:33;98672.06;;;2.87;60.61
57000;BME280;42891;50.006;21.964;2023-02-03T12:49:41;98672.53;;;2.65;61.05
57000;BME280;42891;50.006;21.964;2023-02-03T12:53:47;98657.00;;;2.63;61.08
57000;BME280;42891;50.006;21.964;2023-02-03T12:57:57;98637.19;;;2.46;60.36
57000;BME280;42891;50.006;21.964;2023-02-03T13:02:07;98624.31;;;2.58;61.07
57000;BME280;42891;50.006;21.964;2023-02-03T13:10:30;98575.75;;;2.42;61.41
57000;BME280;42891;50.006;21.964;2023-02-03T13:18:40;98583.84;;;2.23;61.98
57000;BME280;42891;50.006;21.964;2023-02-03T13:22:41;98562.38;;;2.19;62.10
57000;BME280;42891;50.006;21.964;2023-02-03T13:26:48;98536.25;;;2.21;63.12
57000;BME280;42891;50.006;21.964;2023-02-03T13:31:14;98544.91;;;2.07;63.00
57000;BME280;42891;50.006;21.964;2023-02-03T13:44:41;98512.16;;;2.03;62.71
57000;BME280;42891;50.006;21.964;2023-02-03T13:48:44;98502.56;;;2.03;63.18
57000;BME280;42891;50.006;21.964;2023-02-03T13:52:58;98485.16;;;2.18;63.60
57000;BME280;42891;50.006;21.964;2023-02-03T13:57:01;98471.50;;;2.00;63.03
57000;BME280;42891;50.006;21.964;2023-02-03T14:01:25;98465.28;;;2.03;63.01
57000;BME280;42891;50.006;21.964;2023-02-03T14:05:43;98451.44;;;1.88;63.87
57000;BME280;42891;50.006;21.964;2023-02-03T14:09:45;98436.84;;;1.85;63.54
57000;BME280;42891;50.006;21.964;2023-02-03T14:13:45;98434.34;;;1.84;64.34
57000;BME280;42891;50.006;21.964;2023-02-03T14:25:57;98397.00;;;1.56;65.77
57000;BME280;42891;50.006;21.964;2023-02-03T14:30:11;98378.22;;;1.51;66.97
57000;BME280;42891;50.006;21.964;2023-02-03T14:38:31;98356.28;;;1.55;72.16
57000;BME280;42891;50.006;21.964;2023-02-03T14:55:59;98297.53;;;0.95;80.24
57000;BME280;42891;50.006;21.964;2023-02-03T15:04:21;98285.25;;;0.68;84.94
57000;BME280;42891;50.006;21.964;2023-02-03T15:08:30;98278.38;;;0.53;85.53
57000;BME280;42891;50.006;21.964;2023-02-03T15:12:34;98263.72;;;0.52;85.97
57000;BME280;42891;50.006;21.964;2023-02-03T15:16:36;98260.06;;;0.40;86.70
57000;BME280;42891;50.006;21.964;2023-02-03T15:20:40;98218.13;;;0.31;86.82
57000;BME280;42891;50.006;21.964;2023-02-03T15:24:40;98236.69;;;0.40;88.40
57000;BME280;42891;50.006;21.964;2023-02-03T15:28:41;98229.53;;;0.29;88.46
57000;BME280;42891;50.006;21.964;2023-02-03T15:32:47;98222.84;;;0.10;89.15
57000;BME280;42891;50.006;21.964;2023-02-03T15:36:55;98205.06;;;0.19;90.83
57000;BME280;42891;50.006;21.964;2023-02-03T15:40:56;98203.16;;;0.06;92.14
57000;BME280;42891;50.006;21.964;2023-02-03T15:45:04;98194.25;;;-0.04;94.89
57000;BME280;42891;50.006;21.964;2023-02-03T15:53:32;98178.13;;;-0.09;95.77
57000;BME280;42891;50.006;21.964;2023-02-03T15:57:33;98166.72;;;0.08;96.23
57000;BME280;42891;50.006;21.964;2023-02-03T16:01:38;98163.84;;;0.12;95.46
57000;BME280;42891;50.006;21.964;2023-02-03T16:05:39;98136.59;;;-0.09;95.21
57000;BME280;42891;50.006;21.964;2023-02-03T16:09:40;98148.97;;;-0.29;95.82
57000;BME280;42891;50.006;21.964;2023-02-03T16:13:41;98135.38;;;-0.18;98.02
57000;BME280;42891;50.006;21.964;2023-02-03T16:17:42;98122.84;;;-0.11;99.28
57000;BME280;42891;50.006;21.964;2023-02-03T16:30:20;98065.06;;;-0.58;100.00
57000;BME280;42891;50.006;21.964;2023-02-03T16:34:39;98092.16;;;-0.33;99.98
57000;BME280;42891;50.006;21.964;2023-02-03T16:39:09;98076.69;;;-0.35;100.00
57000;BME280;42891;50.006;21.964;2023-02-03T16:43:28;98052.09;;;-0.58;100.00
57000;BME280;42891;50.006;21.964;2023-02-03T16:47:47;98073.16;;;-0.34;100.00
57000;BME280;42891;50.006;21.964;2023-02-03T16:52:06;98065.81;;;-0.56;100.00
57000;BME280;42891;50.006;21.964;2023-02-03T16:56:08;98055.63;;;-0.59;100.00
57000;BME280;42891;50.006;21.964;2023-02-03T17:00:09;98039.75;;;-0.69;100.00
57000;BME280;42891;50.006;21.964;2023-02-03T17:04:12;98046.63;;;-0.68;100.00
57000;BME280;42891;50.006;21.964;2023-02-03T17:08:14;98035.84;;;-0.76;100.00
57000;BME280;42891;50.006;21.964;2023-02-03T17:12:14;98051.06;;;-0.56;100.00
57000;BME280;42891;50.006;21.964;2023-02-03T17:16:18;98028.81;;;-0.74;100.00
57000;BME280;42891;50.006;21.964;2023-02-03T17:20:18;98023.34;;;-0.70;100.00
57000;BME280;42891;50.006;21.964;2023-02-03T17:24:19;97995.00;;;-0.87;100.00
57000;BME280;42891;50.006;21.964;2023-02-03T17:28:19;98019.31;;;-0.59;100.00
57000;BME280;42891;50.006;21.964;2023-02-03T17:32:19;98014.03;;;-0.72;100.00
57000;BME280;42891;50.006;21.964;2023-02-03T17:36:20;98001.59;;;-0.67;100.00
57000;BME280;42891;50.006;21.964;2023-02-03T17:40:20;98011.44;;;-0.58;100.00
57000;BME280;42891;50.006;21.964;2023-02-03T17:44:21;98010.75;;;-0.76;100.00
57000;BME280;42891;50.006;21.964;2023-02-03T17:48:21;98010.13;;;-0.65;100.00
57000;BME280;42891;50.006;21.964;2023-02-03T17:52:21;97996.13;;;-0.77;100.00
57000;BME280;42891;50.006;21.964;2023-02-03T17:56:23;97992.91;;;-0.52;100.00
57000;BME280;42891;50.006;21.964;2023-02-03T18:00:25;97980.88;;;-0.67;100.00
57000;BME280;42891;50.006;21.964;2023-02-03T18:04:25;97983.22;;;-0.62;100.00
57000;BME280;42891;50.006;21.964;2023-02-03T18:08:25;97983.84;;;-0.59;100.00
57000;BME280;42891;50.006;21.964;2023-02-03T18:12:26;97991.28;;;-0.38;100.00
57000;BME280;42891;50.006;21.964;2023-02-03T18:16:28;97994.13;;;-0.57;100.00
57000;BME280;42891;50.006;21.964;2023-02-03T18:20:31;97991.38;;;-0.54;100.00
57000;BME280;42891;50.006;21.964;2023-02-03T18:24:32;97997.84;;;-0.47;100.00
57000;BME280;42891;50.006;21.964;2023-02-03T18:28:32;97993.31;;;-0.29;100.00
57000;BME280;42891;50.006;21.964;2023-02-03T18:32:33;97984.59;;;-0.28;100.00
57000;BME280;42891;50.006;21.964;2023-02-03T18:36:33;97985.72;;;-0.46;100.00
57000;BME280;42891;50.006;21.964;2023-02-03T18:40:35;97995.34;;;-0.34;100.00
57000;BME280;42891;50.006;21.964;2023-02-03T18:44:36;97978.69;;;-0.30;100.00
57000;BME280;42891;50.006;21.964;2023-02-03T18:48:36;97980.50;;;-0.32;100.00
57000;BME280;42891;50.006;21.964;2023-02-03T18:52:37;97982.19;;;-0.16;100.00
57000;BME280;42891;50.006;21.964;2023-02-03T18:56:37;97991.91;;;0.09;100.00
57000;BME280;42891;50.006;21.964;2023-02-03T19:00:38;97960.59;;;-0.17;100.00
57000;BME280;42891;50.006;21.964;2023-02-03T19:04:38;97992.56;;;-0.02;100.00
57000;BME280;42891;50.006;21.964;2023-02-03T19:08:38;97974.41;;;-0.02;100.00
57000;BME280;42891;50.006;21.964;2023-02-03T19:12:39;97977.38;;;-0.08;100.00
57000;BME280;42891;50.006;21.964;2023-02-03T19:16:39;97962.47;;;-0.19;100.00
57000;BME280;42891;50.006;21.964;2023-02-03T19:20:41;97974.59;;;-0.20;100.00
57000;BME280;42891;50.006;21.964;2023-02-03T19:24:42;97968.00;;;-0.25;100.00
57000;BME280;42891;50.006;21.964;2023-02-03T19:28:42;97977.38;;;-0.23;100.00
57000;BME280;42891;50.006;21.964;2023-02-03T19:32:42;97971.81;;;-0.31;100.00
57000;BME280;42891;50.006;21.964;2023-02-03T19:36:43;97980.69;;;-0.06;100.00
57000;BME280;42891;50.006;21.964;2023-02-03T19:40:46;97982.63;;;0.05;100.00
57000;BME280;42891;50.006;21.964;2023-02-03T19:44:46;97984.19;;;0.22;100.00
57000;BME280;42891;50.006;21.964;2023-02-03T19:48:47;97969.97;;;0.00;100.00
57000;BME280;42891;50.006;21.964;2023-02-03T19:52:47;97992.53;;;0.27;100.00
57000;BME280;42891;50.006;21.964;2023-02-03T19:56:48;97999.09;;;0.32;100.00
57000;BME280;42891;50.006;21.964;2023-02-03T20:00:48;97987.84;;;0.46;100.00
57000;BME280;42891;50.006;21.964;2023-02-03T20:04:48;97992.72;;;0.51;100.00
57000;BME280;42891;50.006;21.964;2023-02-03T20:08:49;97986.44;;;0.68;100.00
57000;BME280;42891;50.006;21.964;2023-02-03T20:12:49;97988.09;;;0.83;100.00
57000;BME280;42891;50.006;21.964;2023-02-03T20:16:49;97984.69;;;0.96;100.00
57000;BME280;42891;50.006;21.964;2023-02-03T20:20:51;97966.28;;;0.99;100.00
57000;BME280;42891;50.006;21.964;2023-02-03T20:24:52;97987.22;;;1.23;100.00
57000;BME280;42891;50.006;21.964;2023-02-03T20:28:52;97982.13;;;1.34;100.00
57000;BME280;42891;50.006;21.964;2023-02-03T20:32:52;97993.47;;;1.46;100.00
57000;BME280;42891;50.006;21.964;2023-02-03T20:36:53;97996.69;;;1.50;100.00
57000;BME280;42891;50.006;21.964;2023-02-03T20:40:59;97979.00;;;1.55;100.00
57000;BME280;42891;50.006;21.964;2023-02-03T20:44:59;97986.09;;;1.53;100.00
57000;BME280;42891;50.006;21.964;2023-02-03T20:49:00;97982.53;;;1.54;100.00
57000;BME280;42891;50.006;21.964;2023-02-03T20:53:00;97959.88;;;1.43;100.00
57000;BME280;42891;50.006;21.964;2023-02-03T20:57:00;97964.34;;;1.41;100.00
57000;BME280;42891;50.006;21.964;2023-02-03T21:01:01;97981.81;;;1.65;100.00
57000;BME280;42891;50.006;21.964;2023-02-03T21:05:22;97987.03;;;1.78;100.00
57000;BME280;42891;50.006;21.964;2023-02-03T21:09:23;97983.16;;;1.70;100.00
57000;BME280;42891;50.006;21.964;2023-02-03T21:13:28;97976.91;;;1.73;100.00
57000;BME280;42891;50.006;21.964;2023-02-03T21:17:31;97973.28;;;1.63;100.00
57000;BME280;42891;50.006;21.964;2023-02-03T21:21:36;97984.41;;;1.65;100.00
57000;BME280;42891;50.006;21.964;2023-02-03T21:25:38;97983.38;;;1.67;100.00
57000;BME280;42891;50.006;21.964;2023-02-03T21:29:38;97968.31;;;1.60;100.00
57000;BME280;42891;50.006;21.964;2023-02-03T21:33:40;97993.47;;;1.72;100.00
57000;BME280;42891;50.006;21.964;2023-02-03T21:42:30;97990.03;;;1.72;100.00
57000;BME280;42891;50.006;21.964;2023-02-03T21:46:40;97986.19;;;1.64;100.00
57000;BME280;42891;50.006;21.964;2023-02-03T21:50:40;97994.22;;;1.61;100.00
57000;BME280;42891;50.006;21.964;2023-02-03T21:54:41;97983.50;;;1.53;100.00
57000;BME280;42891;50.006;21.964;2023-02-03T21:58:44;98004.31;;;1.53;100.00
57000;BME280;42891;50.006;21.964;2023-02-03T22:02:57;98002.22;;;1.71;100.00
57000;BME280;42891;50.006;21.964;2023-02-03T22:06:58;97998.16;;;1.54;100.00
57000;BME280;42891;50.006;21.964;2023-02-03T22:10:59;97998.56;;;1.61;100.00
57000;BME280;42891;50.006;21.964;2023-02-03T22:14:59;98006.19;;;1.77;100.00
57000;BME280;42891;50.006;21.964;2023-02-03T22:18:59;98007.84;;;1.78;100.00
57000;BME280;42891;50.006;21.964;2023-02-03T22:22:59;98005.31;;;1.76;100.00
57000;BME280;42891;50.006;21.964;2023-02-03T22:27:00;98000.88;;;1.78;100.00
57000;BME280;42891;50.006;21.964;2023-02-03T22:31:00;98010.84;;;1.72;100.00
57000;BME280;42891;50.006;21.964;2023-02-03T22:35:03;98004.00;;;1.83;100.00
57000;BME280;42891;50.006;21.964;2023-02-03T22:39:03;97995.03;;;1.75;100.00
57000;BME280;42891;50.006;21.964;2023-02-03T22:43:03;97998.47;;;1.88;100.00
57000;BME280;42891;50.006;21.964;2023-02-03T22:47:04;97990.88;;;1.85;100.00
57000;BME280;42891;50.006;21.964;2023-02-03T22:51:04;97980.25;;;1.88;100.00
57000;BME280;42891;50.006;21.964;2023-02-03T22:55:05;97972.13;;;1.80;100.00
57000;BME280;42891;50.006;21.964;2023-02-03T22:59:06;97992.00;;;1.94;100.00
57000;BME280;42891;50.006;21.964;2023-02-03T23:03:07;97984.50;;;1.89;100.00
57000;BME280;42891;50.006;21.964;2023-02-03T23:07:07;97975.16;;;1.74;100.00
57000;BME280;42891;50.006;21.964;2023-02-03T23:11:08;97991.28;;;1.92;100.00
57000;BME280;42891;50.006;21.964;2023-02-03T23:15:08;97993.56;;;1.96;100.00
57000;BME280;42891;50.006;21.964;2023-02-03T23:19:09;97976.50;;;1.92;100.00
57000;BME280;42891;50.006;21.964;2023-02-03T23:23:09;97994.06;;;1.88;100.00
57000;BME280;42891;50.006;21.964;2023-02-03T23:27:10;97992.81;;;1.94;100.00
57000;BME280;42891;50.006;21.964;2023-02-03T23:31:10;97987.84;;;1.91;100.00
57000;BME280;42891;50.006;21.964;2023-02-03T23:35:10;97977.19;;;1.94;100.00
57000;BME280;42891;50.006;21.964;2023-02-03T23:39:29;97986.47;;;1.98;100.00
57000;BME280;42891;50.006;21.964;2023-02-03T23:43:30;97974.94;;;1.90;100.00
57000;BME280;42891;50.006;21.964;2023-02-03T23:47:30;97985.41;;;2.01;100.00
57000;BME280;42891;50.006;21.964;2023-02-03T23:51:30;97975.75;;;2.03;100.00
57000;BME280;42891;50.006;21.964;2023-02-03T23:55:30;97987.81;;;2.04;100.00
57000;BME280;42891;50.006;21.964;2023-02-03T23:59:31;97966.72;;;1.96;100.00
